sensor_id;sensor_type;location;lat;lon;timestamp;P1;durP1;ratioP1;P2;durP2;ratioP2
58384;SDS011;44185;47.844;8.966;2024-01-27T00:00:50;2.47;;;1.92;;
58384;SDS011;44185;47.844;8.966;2024-01-27T00:03:16;2.90;;;1.98;;
58384;SDS011;44185;47.844;8.966;2024-01-27T00:05:41;3.63;;;2.17;;
58384;SDS011;44185;47.844;8.966;2024-01-27T00:08:07;2.30;;;2.08;;
58384;SDS011;44185;47.844;8.966;2024-01-27T00:10:32;7.63;;;2.88;;
58384;SDS011;44185;47.844;8.966;2024-01-27T00:12:59;3.90;;;2.30;;
58384;SDS011;44185;47.844;8.966;2024-01-27T00:15:24;4.63;;;2.13;;
58384;SDS011;44185;47.844;8.966;2024-01-27T00:17:50;3.72;;;2.20;;
58384;SDS011;44185;47.844;8.966;2024-01-27T00:20:15;3.67;;;2.42;;
58384;SDS011;44185;47.844;8.966;2024-01-27T00:22:41;2.97;;;2.03;;
58384;SDS011;44185;47.844;8.966;2024-01-27T00:25:06;4.53;;;1.98;;
58384;SDS011;44185;47.844;8.966;2024-01-27T00:27:32;3.45;;;2.13;;
58384;SDS011;44185;47.844;8.966;2024-01-27T00:29:59;5.45;;;2.22;;
58384;SDS011;44185;47.844;8.966;2024-01-27T00:32:24;3.45;;;1.92;;
58384;SDS011;44185;47.844;8.966;2024-01-27T00:34:50;3.13;;;1.75;;
58384;SDS011;44185;47.844;8.966;2024-01-27T00:37:15;3.45;;;2.00;;
58384;SDS011;44185;47.844;8.966;2024-01-27T00:39:41;2.10;;;1.70;;
58384;SDS011;44185;47.844;8.966;2024-01-27T00:42:06;2.65;;;1.70;;
58384;SDS011;44185;47.844;8.966;2024-01-27T00:44:32;6.05;;;2.03;;
58384;SDS011;44185;47.844;8.966;2024-01-27T00:46:58;4.05;;;2.50;;
58384;SDS011;44185;47.844;8.966;2024-01-27T00:49:24;2.60;;;2.15;;
58384;SDS011;44185;47.844;8.966;2024-01-27T00:51:50;6.43;;;2.42;;
58384;SDS011;44185;47.844;8.966;2024-01-27T00:54:15;3.60;;;2.10;;
58384;SDS011;44185;47.844;8.966;2024-01-27T00:56:41;4.05;;;2.40;;
58384;SDS011;44185;47.844;8.966;2024-01-27T00:59:06;3.92;;;2.53;;
58384;SDS011;44185;47.844;8.966;2024-01-27T01:01:31;2.50;;;2.00;;
58384;SDS011;44185;47.844;8.966;2024-01-27T01:03:58;3.75;;;2.38;;
58384;SDS011;44185;47.844;8.966;2024-01-27T01:06:24;3.13;;;2.30;;
58384;SDS011;44185;47.844;8.966;2024-01-27T01:08:50;2.15;;;2.05;;
58384;SDS011;44185;47.844;8.966;2024-01-27T01:11:15;2.97;;;1.88;;
58384;SDS011;44185;47.844;8.966;2024-01-27T01:13:41;2.60;;;1.83;;
58384;SDS011;44185;47.844;8.966;2024-01-27T01:16:06;3.45;;;2.13;;
58384;SDS011;44185;47.844;8.966;2024-01-27T01:18:32;3.47;;;2.00;;
58384;SDS011;44185;47.844;8.966;2024-01-27T01:20:59;3.50;;;2.53;;
58384;SDS011;44185;47.844;8.966;2024-01-27T01:23:24;6.00;;;2.40;;
58384;SDS011;44185;47.844;8.966;2024-01-27T01:25:50;3.00;;;2.42;;
58384;SDS011;44185;47.844;8.966;2024-01-27T01:28:15;6.88;;;2.58;;
58384;SDS011;44185;47.844;8.966;2024-01-27T01:30:41;3.22;;;2.25;;
58384;SDS011;44185;47.844;8.966;2024-01-27T01:33:06;4.57;;;3.03;;
58384;SDS011;44185;47.844;8.966;2024-01-27T01:35:32;4.85;;;3.10;;
58384;SDS011;44185;47.844;8.966;2024-01-27T01:37:58;7.18;;;2.78;;
58384;SDS011;44185;47.844;8.966;2024-01-27T01:40:24;3.38;;;2.50;;
58384;SDS011;44185;47.844;8.966;2024-01-27T01:42:50;3.50;;;2.70;;
58384;SDS011;44185;47.844;8.966;2024-01-27T01:45:16;5.38;;;3.10;;
58384;SDS011;44185;47.844;8.966;2024-01-27T01:47:41;5.18;;;2.67;;
58384;SDS011;44185;47.844;8.966;2024-01-27T01:50:07;5.22;;;2.45;;
58384;SDS011;44185;47.844;8.966;2024-01-27T01:52:33;4.75;;;3.10;;
58384;SDS011;44185;47.844;8.966;2024-01-27T01:55:00;2.83;;;2.40;;
58384;SDS011;44185;47.844;8.966;2024-01-27T01:57:26;3.40;;;2.42;;
58384;SDS011;44185;47.844;8.966;2024-01-27T01:59:51;6.32;;;2.67;;
58384;SDS011;44185;47.844;8.966;2024-01-27T02:02:17;4.97;;;2.78;;
58384;SDS011;44185;47.844;8.966;2024-01-27T02:04:42;4.95;;;2.50;;
58384;SDS011;44185;47.844;8.966;2024-01-27T02:07:08;4.95;;;2.38;;
58384;SDS011;44185;47.844;8.966;2024-01-27T02:09:34;6.47;;;2.65;;
58384;SDS011;44185;47.844;8.966;2024-01-27T02:12:01;3.20;;;2.38;;
58384;SDS011;44185;47.844;8.966;2024-01-27T02:14:27;12.65;;;2.42;;
58384;SDS011;44185;47.844;8.966;2024-01-27T02:16:52;4.63;;;2.30;;
58384;SDS011;44185;47.844;8.966;2024-01-27T02:19:18;5.82;;;2.67;;
58384;SDS011;44185;47.844;8.966;2024-01-27T02:21:43;6.07;;;2.30;;
58384;SDS011;44185;47.844;8.966;2024-01-27T02:24:10;2.78;;;2.10;;
58384;SDS011;44185;47.844;8.966;2024-01-27T02:26:35;3.65;;;2.33;;
58384;SDS011;44185;47.844;8.966;2024-01-27T02:29:01;4.10;;;2.35;;
58384;SDS011;44185;47.844;8.966;2024-01-27T02:31:26;3.75;;;2.20;;
58384;SDS011;44185;47.844;8.966;2024-01-27T02:33:52;3.20;;;2.20;;
58384;SDS011;44185;47.844;8.966;2024-01-27T02:36:17;3.95;;;2.15;;
58384;SDS011;44185;47.844;8.966;2024-01-27T02:38:43;4.78;;;2.25;;
58384;SDS011;44185;47.844;8.966;2024-01-27T02:41:10;4.13;;;2.33;;
58384;SDS011;44185;47.844;8.966;2024-01-27T02:43:35;4.05;;;2.20;;
58384;SDS011;44185;47.844;8.966;2024-01-27T02:46:01;3.42;;;2.08;;
58384;SDS011;44185;47.844;8.966;2024-01-27T02:48:27;2.40;;;2.17;;
58384;SDS011;44185;47.844;8.966;2024-01-27T02:50:52;3.63;;;2.08;;
58384;SDS011;44185;47.844;8.966;2024-01-27T02:53:18;5.28;;;2.50;;
58384;SDS011;44185;47.844;8.966;2024-01-27T02:55:43;6.35;;;3.70;;
58384;SDS011;44185;47.844;8.966;2024-01-27T02:58:10;6.10;;;2.63;;
58384;SDS011;44185;47.844;8.966;2024-01-27T03:00:35;6.05;;;2.47;;
58384;SDS011;44185;47.844;8.966;2024-01-27T03:03:01;3.30;;;2.20;;
58384;SDS011;44185;47.844;8.966;2024-01-27T03:05:26;3.60;;;2.60;;
58384;SDS011;44185;47.844;8.966;2024-01-27T03:07:52;3.47;;;2.20;;
58384;SDS011;44185;47.844;8.966;2024-01-27T03:10:17;3.63;;;2.50;;
58384;SDS011;44185;47.844;8.966;2024-01-27T03:12:43;5.32;;;3.20;;
58384;SDS011;44185;47.844;8.966;2024-01-27T03:15:10;6.95;;;2.60;;
58384;SDS011;44185;47.844;8.966;2024-01-27T03:17:35;4.97;;;2.72;;
58384;SDS011;44185;47.844;8.966;2024-01-27T03:20:01;4.10;;;2.30;;
58384;SDS011;44185;47.844;8.966;2024-01-27T03:22:26;3.58;;;2.63;;
58384;SDS011;44185;47.844;8.966;2024-01-27T03:24:51;2.53;;;2.20;;
58384;SDS011;44185;47.844;8.966;2024-01-27T03:27:17;3.08;;;2.40;;
58384;SDS011;44185;47.844;8.966;2024-01-27T03:29:42;2.50;;;1.88;;
58384;SDS011;44185;47.844;8.966;2024-01-27T03:32:09;3.47;;;2.33;;
58384;SDS011;44185;47.844;8.966;2024-01-27T03:34:35;4.03;;;2.20;;
58384;SDS011;44185;47.844;8.966;2024-01-27T03:37:00;4.15;;;2.42;;
58384;SDS011;44185;47.844;8.966;2024-01-27T03:39:26;2.75;;;2.30;;
58384;SDS011;44185;47.844;8.966;2024-01-27T03:41:51;2.97;;;2.55;;
58384;SDS011;44185;47.844;8.966;2024-01-27T03:44:17;3.20;;;2.05;;
58384;SDS011;44185;47.844;8.966;2024-01-27T03:46:42;4.82;;;1.92;;
58384;SDS011;44185;47.844;8.966;2024-01-27T03:49:09;2.80;;;2.20;;
58384;SDS011;44185;47.844;8.966;2024-01-27T03:51:36;2.47;;;1.88;;
58384;SDS011;44185;47.844;8.966;2024-01-27T03:54:01;2.28;;;2.08;;
58384;SDS011;44185;47.844;8.966;2024-01-27T03:56:27;3.75;;;2.22;;
58384;SDS011;44185;47.844;8.966;2024-01-27T03:58:52;4.07;;;2.30;;
58384;SDS011;44185;47.844;8.966;2024-01-27T04:01:18;4.80;;;2.35;;
58384;SDS011;44185;47.844;8.966;2024-01-27T04:03:43;2.67;;;2.47;;
58384;SDS011;44185;47.844;8.966;2024-01-27T04:06:10;5.45;;;2.38;;
58384;SDS011;44185;47.844;8.966;2024-01-27T04:08:35;8.10;;;2.45;;
58384;SDS011;44185;47.844;8.966;2024-01-27T04:11:01;3.67;;;2.10;;
58384;SDS011;44185;47.844;8.966;2024-01-27T04:13:26;4.13;;;2.83;;
58384;SDS011;44185;47.844;8.966;2024-01-27T04:15:52;3.05;;;1.98;;
58384;SDS011;44185;47.844;8.966;2024-01-27T04:18:17;3.65;;;2.60;;
58384;SDS011;44185;47.844;8.966;2024-01-27T04:20:42;2.80;;;2.53;;
58384;SDS011;44185;47.844;8.966;2024-01-27T04:23:09;2.90;;;2.15;;
58384;SDS011;44185;47.844;8.966;2024-01-27T04:25:35;5.50;;;2.55;;
58384;SDS011;44185;47.844;8.966;2024-01-27T04:28:00;5.00;;;2.70;;
58384;SDS011;44185;47.844;8.966;2024-01-27T04:30:26;4.32;;;3.00;;
58384;SDS011;44185;47.844;8.966;2024-01-27T04:32:51;3.72;;;2.60;;
58384;SDS011;44185;47.844;8.966;2024-01-27T04:35:17;4.65;;;2.55;;
58384;SDS011;44185;47.844;8.966;2024-01-27T04:37:42;4.78;;;2.35;;
58384;SDS011;44185;47.844;8.966;2024-01-27T04:40:10;4.50;;;2.75;;
58384;SDS011;44185;47.844;8.966;2024-01-27T04:42:37;4.53;;;2.28;;
58384;SDS011;44185;47.844;8.966;2024-01-27T04:45:03;3.88;;;2.20;;
58384;SDS011;44185;47.844;8.966;2024-01-27T04:47:29;4.32;;;2.17;;
58384;SDS011;44185;47.844;8.966;2024-01-27T04:49:55;3.45;;;2.50;;
58384;SDS011;44185;47.844;8.966;2024-01-27T04:52:20;5.28;;;2.65;;
58384;SDS011;44185;47.844;8.966;2024-01-27T04:54:46;4.20;;;2.42;;
58384;SDS011;44185;47.844;8.966;2024-01-27T04:57:12;4.40;;;2.95;;
58384;SDS011;44185;47.844;8.966;2024-01-27T04:59:38;8.93;;;3.70;;
58384;SDS011;44185;47.844;8.966;2024-01-27T05:02:03;3.00;;;2.17;;
58384;SDS011;44185;47.844;8.966;2024-01-27T05:04:29;8.93;;;3.00;;
58384;SDS011;44185;47.844;8.966;2024-01-27T05:06:54;10.02;;;3.20;;
58384;SDS011;44185;47.844;8.966;2024-01-27T05:09:20;4.93;;;2.78;;
58384;SDS011;44185;47.844;8.966;2024-01-27T05:11:45;4.72;;;2.38;;
58384;SDS011;44185;47.844;8.966;2024-01-27T05:14:12;7.45;;;3.35;;
58384;SDS011;44185;47.844;8.966;2024-01-27T05:16:37;5.07;;;2.85;;
58384;SDS011;44185;47.844;8.966;2024-01-27T05:19:03;3.67;;;2.65;;
58384;SDS011;44185;47.844;8.966;2024-01-27T05:21:28;5.38;;;2.65;;
58384;SDS011;44185;47.844;8.966;2024-01-27T05:23:54;4.10;;;2.65;;
58384;SDS011;44185;47.844;8.966;2024-01-27T05:26:20;4.50;;;2.63;;
58384;SDS011;44185;47.844;8.966;2024-01-27T05:28:45;7.97;;;3.17;;
58384;SDS011;44185;47.844;8.966;2024-01-27T05:31:12;6.05;;;2.70;;
58384;SDS011;44185;47.844;8.966;2024-01-27T05:33:38;6.50;;;2.95;;
58384;SDS011;44185;47.844;8.966;2024-01-27T05:36:03;4.53;;;2.80;;
58384;SDS011;44185;47.844;8.966;2024-01-27T05:38:29;7.10;;;3.88;;
58384;SDS011;44185;47.844;8.966;2024-01-27T05:40:54;5.13;;;3.30;;
58384;SDS011;44185;47.844;8.966;2024-01-27T05:43:20;5.05;;;2.85;;
58384;SDS011;44185;47.844;8.966;2024-01-27T05:45:45;6.10;;;3.30;;
58384;SDS011;44185;47.844;8.966;2024-01-27T05:48:12;9.27;;;3.53;;
58384;SDS011;44185;47.844;8.966;2024-01-27T05:50:39;7.38;;;3.15;;
58384;SDS011;44185;47.844;8.966;2024-01-27T05:53:07;6.57;;;3.03;;
58384;SDS011;44185;47.844;8.966;2024-01-27T05:55:32;6.15;;;3.38;;
58384;SDS011;44185;47.844;8.966;2024-01-27T05:57:58;5.43;;;3.33;;
58384;SDS011;44185;47.844;8.966;2024-01-27T06:00:23;7.15;;;3.60;;
58384;SDS011;44185;47.844;8.966;2024-01-27T06:02:49;5.15;;;3.45;;
58384;SDS011;44185;47.844;8.966;2024-01-27T06:05:16;3.92;;;3.15;;
58384;SDS011;44185;47.844;8.966;2024-01-27T06:07:41;4.13;;;2.92;;
58384;SDS011;44185;47.844;8.966;2024-01-27T06:10:07;6.30;;;3.38;;
58384;SDS011;44185;47.844;8.966;2024-01-27T06:12:33;5.65;;;3.45;;
58384;SDS011;44185;47.844;8.966;2024-01-27T06:14:59;8.07;;;3.03;;
58384;SDS011;44185;47.844;8.966;2024-01-27T06:17:25;6.85;;;3.53;;
58384;SDS011;44185;47.844;8.966;2024-01-27T06:19:50;4.72;;;3.33;;
58384;SDS011;44185;47.844;8.966;2024-01-27T06:22:17;5.05;;;3.45;;
58384;SDS011;44185;47.844;8.966;2024-01-27T06:24:42;4.57;;;3.35;;
58384;SDS011;44185;47.844;8.966;2024-01-27T06:27:08;4.95;;;3.50;;
58384;SDS011;44185;47.844;8.966;2024-01-27T06:29:34;5.22;;;2.75;;
58384;SDS011;44185;47.844;8.966;2024-01-27T06:31:59;5.93;;;3.35;;
58384;SDS011;44185;47.844;8.966;2024-01-27T06:34:25;3.75;;;3.00;;
58384;SDS011;44185;47.844;8.966;2024-01-27T06:36:50;8.15;;;3.55;;
58384;SDS011;44185;47.844;8.966;2024-01-27T06:39:17;6.60;;;3.00;;
58384;SDS011;44185;47.844;8.966;2024-01-27T06:41:42;7.13;;;3.45;;
58384;SDS011;44185;47.844;8.966;2024-01-27T06:44:08;8.13;;;3.85;;
58384;SDS011;44185;47.844;8.966;2024-01-27T06:46:33;9.63;;;3.78;;
58384;SDS011;44185;47.844;8.966;2024-01-27T06:48:58;6.68;;;3.70;;
58384;SDS011;44185;47.844;8.966;2024-01-27T06:51:24;6.43;;;3.35;;
58384;SDS011;44185;47.844;8.966;2024-01-27T06:53:50;5.85;;;3.78;;
58384;SDS011;44185;47.844;8.966;2024-01-27T06:56:17;3.88;;;2.78;;
58384;SDS011;44185;47.844;8.966;2024-01-27T06:58:42;6.55;;;3.58;;
58384;SDS011;44185;47.844;8.966;2024-01-27T07:01:08;4.57;;;3.15;;
58384;SDS011;44185;47.844;8.966;2024-01-27T07:03:34;4.93;;;3.10;;
58384;SDS011;44185;47.844;8.966;2024-01-27T07:05:59;6.10;;;3.22;;
58384;SDS011;44185;47.844;8.966;2024-01-27T07:08:24;5.93;;;2.97;;
58384;SDS011;44185;47.844;8.966;2024-01-27T07:10:50;6.47;;;3.28;;
58384;SDS011;44185;47.844;8.966;2024-01-27T07:13:17;5.28;;;3.33;;
58384;SDS011;44185;47.844;8.966;2024-01-27T07:15:42;5.43;;;2.97;;
58384;SDS011;44185;47.844;8.966;2024-01-27T07:18:07;6.10;;;3.53;;
58384;SDS011;44185;47.844;8.966;2024-01-27T07:20:33;6.32;;;3.65;;
58384;SDS011;44185;47.844;8.966;2024-01-27T07:22:58;7.10;;;3.53;;
58384;SDS011;44185;47.844;8.966;2024-01-27T07:25:24;6.50;;;3.65;;
58384;SDS011;44185;47.844;8.966;2024-01-27T07:27:50;6.40;;;3.28;;
58384;SDS011;44185;47.844;8.966;2024-01-27T07:30:17;4.85;;;3.17;;
58384;SDS011;44185;47.844;8.966;2024-01-27T07:32:42;6.25;;;3.70;;
58384;SDS011;44185;47.844;8.966;2024-01-27T07:35:08;6.32;;;3.17;;
58384;SDS011;44185;47.844;8.966;2024-01-27T07:37:33;7.25;;;3.72;;
58384;SDS011;44185;47.844;8.966;2024-01-27T07:39:58;7.50;;;3.35;;
58384;SDS011;44185;47.844;8.966;2024-01-27T07:42:24;4.65;;;2.95;;
58384;SDS011;44185;47.844;8.966;2024-01-27T07:44:50;8.00;;;3.50;;
58384;SDS011;44185;47.844;8.966;2024-01-27T07:47:17;8.25;;;3.83;;
58384;SDS011;44185;47.844;8.966;2024-01-27T07:49:42;5.85;;;3.85;;
58384;SDS011;44185;47.844;8.966;2024-01-27T07:52:07;10.95;;;3.63;;
58384;SDS011;44185;47.844;8.966;2024-01-27T07:54:33;9.50;;;4.80;;
58384;SDS011;44185;47.844;8.966;2024-01-27T07:56:58;14.43;;;5.60;;
58384;SDS011;44185;47.844;8.966;2024-01-27T07:59:24;9.80;;;5.45;;
58384;SDS011;44185;47.844;8.966;2024-01-27T08:01:50;9.90;;;4.97;;
58384;SDS011;44185;47.844;8.966;2024-01-27T08:04:17;14.45;;;7.65;;
58384;SDS011;44185;47.844;8.966;2024-01-27T08:06:45;18.73;;;11.90;;
58384;SDS011;44185;47.844;8.966;2024-01-27T08:09:12;10.63;;;5.00;;
58384;SDS011;44185;47.844;8.966;2024-01-27T08:11:37;12.40;;;5.82;;
58384;SDS011;44185;47.844;8.966;2024-01-27T08:14:02;16.92;;;7.68;;
58384;SDS011;44185;47.844;8.966;2024-01-27T08:16:28;21.20;;;8.93;;
58384;SDS011;44185;47.844;8.966;2024-01-27T08:18:53;24.92;;;10.82;;
58384;SDS011;44185;47.844;8.966;2024-01-27T08:21:20;24.52;;;11.50;;
58384;SDS011;44185;47.844;8.966;2024-01-27T08:23:46;25.30;;;10.57;;
58384;SDS011;44185;47.844;8.966;2024-01-27T08:26:11;25.75;;;10.05;;
58384;SDS011;44185;47.844;8.966;2024-01-27T08:28:37;26.75;;;10.50;;
58384;SDS011;44185;47.844;8.966;2024-01-27T08:31:02;25.98;;;11.15;;
58384;SDS011;44185;47.844;8.966;2024-01-27T08:33:28;29.88;;;11.60;;
58384;SDS011;44185;47.844;8.966;2024-01-27T08:35:53;22.60;;;10.30;;
58384;SDS011;44185;47.844;8.966;2024-01-27T08:38:20;24.23;;;10.43;;
58384;SDS011;44185;47.844;8.966;2024-01-27T08:40:46;25.15;;;11.32;;
58384;SDS011;44185;47.844;8.966;2024-01-27T08:43:11;19.75;;;9.05;;
58384;SDS011;44185;47.844;8.966;2024-01-27T08:45:37;22.20;;;9.13;;
58384;SDS011;44185;47.844;8.966;2024-01-27T08:48:03;18.52;;;8.90;;
58384;SDS011;44185;47.844;8.966;2024-01-27T08:50:29;20.42;;;7.82;;
58384;SDS011;44185;47.844;8.966;2024-01-27T08:52:54;14.35;;;7.25;;
58384;SDS011;44185;47.844;8.966;2024-01-27T08:55:21;18.32;;;9.02;;
58384;SDS011;44185;47.844;8.966;2024-01-27T08:57:47;19.17;;;9.43;;
58384;SDS011;44185;47.844;8.966;2024-01-27T09:00:13;19.48;;;8.73;;
58384;SDS011;44185;47.844;8.966;2024-01-27T09:02:39;17.98;;;6.85;;
58384;SDS011;44185;47.844;8.966;2024-01-27T09:05:04;12.90;;;6.57;;
58384;SDS011;44185;47.844;8.966;2024-01-27T09:07:30;11.07;;;5.28;;
58384;SDS011;44185;47.844;8.966;2024-01-27T09:09:56;13.43;;;5.82;;
58384;SDS011;44185;47.844;8.966;2024-01-27T09:12:22;11.48;;;4.72;;
58384;SDS011;44185;47.844;8.966;2024-01-27T09:14:48;7.85;;;4.65;;
58384;SDS011;44185;47.844;8.966;2024-01-27T09:17:13;16.58;;;7.00;;
58384;SDS011;44185;47.844;8.966;2024-01-27T09:19:39;19.98;;;7.50;;
58384;SDS011;44185;47.844;8.966;2024-01-27T09:22:05;24.35;;;11.15;;
58384;SDS011;44185;47.844;8.966;2024-01-27T09:24:30;17.63;;;8.05;;
58384;SDS011;44185;47.844;8.966;2024-01-27T09:26:56;20.50;;;8.70;;
58384;SDS011;44185;47.844;8.966;2024-01-27T09:29:22;20.02;;;8.88;;
58384;SDS011;44185;47.844;8.966;2024-01-27T09:31:48;17.30;;;6.95;;
58384;SDS011;44185;47.844;8.966;2024-01-27T09:34:13;14.10;;;4.60;;
58384;SDS011;44185;47.844;8.966;2024-01-27T09:36:39;16.20;;;5.90;;
58384;SDS011;44185;47.844;8.966;2024-01-27T09:39:05;17.13;;;7.22;;
58384;SDS011;44185;47.844;8.966;2024-01-27T09:41:31;10.27;;;6.20;;
58384;SDS011;44185;47.844;8.966;2024-01-27T09:43:56;18.42;;;8.32;;
58384;SDS011;44185;47.844;8.966;2024-01-27T09:46:27;16.57;;;8.00;;
58384;SDS011;44185;47.844;8.966;2024-01-27T09:48:53;18.27;;;9.45;;
58384;SDS011;44185;47.844;8.966;2024-01-27T09:51:19;17.20;;;7.32;;
58384;SDS011;44185;47.844;8.966;2024-01-27T09:53:44;10.65;;;4.70;;
58384;SDS011;44185;47.844;8.966;2024-01-27T09:56:10;10.13;;;4.30;;
58384;SDS011;44185;47.844;8.966;2024-01-27T09:58:37;15.45;;;5.82;;
58384;SDS011;44185;47.844;8.966;2024-01-27T10:01:03;9.60;;;4.55;;
58384;SDS011;44185;47.844;8.966;2024-01-27T10:03:31;10.60;;;4.00;;
58384;SDS011;44185;47.844;8.966;2024-01-27T10:05:57;10.88;;;4.10;;
58384;SDS011;44185;47.844;8.966;2024-01-27T10:08:23;10.23;;;4.47;;
58384;SDS011;44185;47.844;8.966;2024-01-27T10:10:49;12.55;;;5.57;;
58384;SDS011;44185;47.844;8.966;2024-01-27T10:13:18;13.25;;;6.20;;
58384;SDS011;44185;47.844;8.966;2024-01-27T10:15:44;15.60;;;6.63;;
58384;SDS011;44185;47.844;8.966;2024-01-27T10:18:09;14.95;;;5.88;;
58384;SDS011;44185;47.844;8.966;2024-01-27T10:20:36;15.25;;;6.82;;
58384;SDS011;44185;47.844;8.966;2024-01-27T10:23:10;13.13;;;6.20;;
58384;SDS011;44185;47.844;8.966;2024-01-27T10:25:37;12.45;;;6.43;;
58384;SDS011;44185;47.844;8.966;2024-01-27T10:28:02;14.82;;;6.13;;
58384;SDS011;44185;47.844;8.966;2024-01-27T10:30:30;9.93;;;4.60;;
58384;SDS011;44185;47.844;8.966;2024-01-27T10:32:55;8.88;;;3.72;;
58384;SDS011;44185;47.844;8.966;2024-01-27T10:35:21;9.57;;;4.27;;
58384;SDS011;44185;47.844;8.966;2024-01-27T10:37:50;12.10;;;3.95;;
58384;SDS011;44185;47.844;8.966;2024-01-27T10:40:16;5.45;;;2.70;;
58384;SDS011;44185;47.844;8.966;2024-01-27T10:42:42;7.65;;;3.50;;
58384;SDS011;44185;47.844;8.966;2024-01-27T10:45:09;9.30;;;3.30;;
58384;SDS011;44185;47.844;8.966;2024-01-27T10:47:36;9.60;;;3.50;;
58384;SDS011;44185;47.844;8.966;2024-01-27T10:50:06;12.25;;;5.63;;
58384;SDS011;44185;47.844;8.966;2024-01-27T10:52:34;17.23;;;6.15;;
58384;SDS011;44185;47.844;8.966;2024-01-27T10:55:18;20.77;;;6.22;;
58384;SDS011;44185;47.844;8.966;2024-01-27T10:58:18;18.92;;;6.15;;
58384;SDS011;44185;47.844;8.966;2024-01-27T11:00:46;12.35;;;5.45;;
58384;SDS011;44185;47.844;8.966;2024-01-27T11:03:15;12.70;;;7.23;;
58384;SDS011;44185;47.844;8.966;2024-01-27T11:05:43;20.25;;;11.13;;
58384;SDS011;44185;47.844;8.966;2024-01-27T11:08:11;9.95;;;6.05;;
58384;SDS011;44185;47.844;8.966;2024-01-27T11:10:39;11.45;;;5.38;;
58384;SDS011;44185;47.844;8.966;2024-01-27T11:13:05;9.32;;;4.53;;
58384;SDS011;44185;47.844;8.966;2024-01-27T11:15:32;12.75;;;5.97;;
58384;SDS011;44185;47.844;8.966;2024-01-27T11:17:58;5.90;;;3.50;;
58384;SDS011;44185;47.844;8.966;2024-01-27T11:20:24;8.00;;;3.85;;
58384;SDS011;44185;47.844;8.966;2024-01-27T11:22:50;8.40;;;4.18;;
58384;SDS011;44185;47.844;8.966;2024-01-27T11:25:17;5.45;;;3.03;;
58384;SDS011;44185;47.844;8.966;2024-01-27T11:27:45;3.60;;;2.40;;
58384;SDS011;44185;47.844;8.966;2024-01-27T11:30:24;5.45;;;2.20;;
58384;SDS011;44185;47.844;8.966;2024-01-27T11:32:51;6.00;;;2.67;;
58384;SDS011;44185;47.844;8.966;2024-01-27T11:35:17;7.68;;;2.78;;
58384;SDS011;44185;47.844;8.966;2024-01-27T11:37:43;4.18;;;2.53;;
58384;SDS011;44185;47.844;8.966;2024-01-27T11:40:08;7.65;;;2.58;;
58384;SDS011;44185;47.844;8.966;2024-01-27T11:42:35;4.75;;;2.88;;
58384;SDS011;44185;47.844;8.966;2024-01-27T11:45:02;9.57;;;3.10;;
58384;SDS011;44185;47.844;8.966;2024-01-27T11:47:28;6.00;;;2.97;;
58384;SDS011;44185;47.844;8.966;2024-01-27T11:49:54;7.53;;;2.88;;
58384;SDS011;44185;47.844;8.966;2024-01-27T11:52:20;5.55;;;2.35;;
58384;SDS011;44185;47.844;8.966;2024-01-27T11:54:53;6.80;;;2.60;;
58384;SDS011;44185;47.844;8.966;2024-01-27T11:57:18;3.58;;;2.33;;
58384;SDS011;44185;47.844;8.966;2024-01-27T11:59:44;4.90;;;2.67;;
58384;SDS011;44185;47.844;8.966;2024-01-27T12:02:11;3.08;;;2.17;;
58384;SDS011;44185;47.844;8.966;2024-01-27T12:04:36;3.65;;;2.03;;
58384;SDS011;44185;47.844;8.966;2024-01-27T12:07:02;6.50;;;3.03;;
58384;SDS011;44185;47.844;8.966;2024-01-27T12:09:28;5.43;;;3.28;;
58384;SDS011;44185;47.844;8.966;2024-01-27T12:11:53;8.57;;;4.07;;
58384;SDS011;44185;47.844;8.966;2024-01-27T12:14:19;6.80;;;4.38;;
58384;SDS011;44185;47.844;8.966;2024-01-27T12:16:44;5.25;;;2.85;;
58384;SDS011;44185;47.844;8.966;2024-01-27T12:19:11;3.03;;;2.40;;
58384;SDS011;44185;47.844;8.966;2024-01-27T12:21:37;2.47;;;1.88;;
58384;SDS011;44185;47.844;8.966;2024-01-27T12:24:02;4.88;;;2.33;;
58384;SDS011;44185;47.844;8.966;2024-01-27T12:26:29;4.85;;;2.63;;
58384;SDS011;44185;47.844;8.966;2024-01-27T12:28:55;2.78;;;2.05;;
58384;SDS011;44185;47.844;8.966;2024-01-27T12:31:21;4.93;;;2.83;;
58384;SDS011;44185;47.844;8.966;2024-01-27T12:33:48;5.78;;;1.90;;
58384;SDS011;44185;47.844;8.966;2024-01-27T12:36:15;5.47;;;2.10;;
58384;SDS011;44185;47.844;8.966;2024-01-27T12:38:42;4.15;;;2.22;;
58384;SDS011;44185;47.844;8.966;2024-01-27T12:41:07;5.82;;;2.10;;
58384;SDS011;44185;47.844;8.966;2024-01-27T12:43:33;2.80;;;2.17;;
58384;SDS011;44185;47.844;8.966;2024-01-27T12:45:58;5.72;;;2.65;;
58384;SDS011;44185;47.844;8.966;2024-01-27T12:48:23;4.57;;;2.20;;
58384;SDS011;44185;47.844;8.966;2024-01-27T12:50:49;3.95;;;2.30;;
58384;SDS011;44185;47.844;8.966;2024-01-27T12:53:16;6.60;;;2.85;;
58384;SDS011;44185;47.844;8.966;2024-01-27T12:55:41;6.10;;;2.60;;
58384;SDS011;44185;47.844;8.966;2024-01-27T12:58:07;4.55;;;2.47;;
58384;SDS011;44185;47.844;8.966;2024-01-27T13:00:32;6.45;;;2.60;;
58384;SDS011;44185;47.844;8.966;2024-01-27T13:02:57;5.00;;;2.85;;
58384;SDS011;44185;47.844;8.966;2024-01-27T13:05:23;7.60;;;3.20;;
58384;SDS011;44185;47.844;8.966;2024-01-27T13:07:48;4.70;;;2.40;;
58384;SDS011;44185;47.844;8.966;2024-01-27T13:10:15;4.68;;;2.80;;
58384;SDS011;44185;47.844;8.966;2024-01-27T13:12:41;4.60;;;2.58;;
58384;SDS011;44185;47.844;8.966;2024-01-27T13:15:06;5.78;;;2.90;;
58384;SDS011;44185;47.844;8.966;2024-01-27T13:17:32;6.07;;;2.50;;
58384;SDS011;44185;47.844;8.966;2024-01-27T13:19:58;3.63;;;2.28;;
58384;SDS011;44185;47.844;8.966;2024-01-27T13:22:23;11.32;;;3.13;;
58384;SDS011;44185;47.844;8.966;2024-01-27T13:24:48;5.38;;;2.40;;
58384;SDS011;44185;47.844;8.966;2024-01-27T13:27:15;4.25;;;2.28;;
58384;SDS011;44185;47.844;8.966;2024-01-27T13:29:41;4.80;;;2.22;;
58384;SDS011;44185;47.844;8.966;2024-01-27T13:32:06;5.70;;;2.00;;
58384;SDS011;44185;47.844;8.966;2024-01-27T13:34:32;6.25;;;2.38;;
58384;SDS011;44185;47.844;8.966;2024-01-27T13:36:57;3.70;;;2.20;;
58384;SDS011;44185;47.844;8.966;2024-01-27T13:39:22;6.50;;;2.85;;
58384;SDS011;44185;47.844;8.966;2024-01-27T13:41:48;4.57;;;2.28;;
58384;SDS011;44185;47.844;8.966;2024-01-27T13:44:15;3.45;;;1.80;;
58384;SDS011;44185;47.844;8.966;2024-01-27T13:46:40;2.53;;;2.00;;
58384;SDS011;44185;47.844;8.966;2024-01-27T13:49:06;3.88;;;2.40;;
58384;SDS011;44185;47.844;8.966;2024-01-27T13:51:31;2.95;;;1.92;;
58384;SDS011;44185;47.844;8.966;2024-01-27T13:53:57;3.38;;;1.63;;
58384;SDS011;44185;47.844;8.966;2024-01-27T13:56:22;4.40;;;2.35;;
58384;SDS011;44185;47.844;8.966;2024-01-27T13:58:48;5.28;;;2.40;;
58384;SDS011;44185;47.844;8.966;2024-01-27T14:01:15;3.55;;;2.28;;
58384;SDS011;44185;47.844;8.966;2024-01-27T14:03:40;4.78;;;2.35;;
58384;SDS011;44185;47.844;8.966;2024-01-27T14:06:06;2.83;;;2.17;;
58384;SDS011;44185;47.844;8.966;2024-01-27T14:08:31;6.47;;;2.00;;
58384;SDS011;44185;47.844;8.966;2024-01-27T14:10:57;2.72;;;1.52;;
58384;SDS011;44185;47.844;8.966;2024-01-27T14:13:22;3.58;;;2.45;;
58384;SDS011;44185;47.844;8.966;2024-01-27T14:15:48;2.55;;;1.80;;
58384;SDS011;44185;47.844;8.966;2024-01-27T14:18:15;6.95;;;2.20;;
58384;SDS011;44185;47.844;8.966;2024-01-27T14:20:40;6.10;;;3.00;;
58384;SDS011;44185;47.844;8.966;2024-01-27T14:23:06;6.90;;;3.53;;
58384;SDS011;44185;47.844;8.966;2024-01-27T14:25:31;6.20;;;2.97;;
58384;SDS011;44185;47.844;8.966;2024-01-27T14:27:57;5.75;;;2.67;;
58384;SDS011;44185;47.844;8.966;2024-01-27T14:30:22;10.02;;;2.22;;
58384;SDS011;44185;47.844;8.966;2024-01-27T14:32:47;3.50;;;2.30;;
58384;SDS011;44185;47.844;8.966;2024-01-27T14:35:14;5.97;;;2.33;;
58384;SDS011;44185;47.844;8.966;2024-01-27T14:37:40;3.50;;;2.60;;